Terminal Aerodrome Forecast
Issued by NWS

Home | Current Version | Previous Version | Text Only | Print | Product List | Glossary On
Versions: 1 2 3 4 5 6 7 8 9 10 11 12 13 14 15 16 17 18 19 20 21 22 23 24 25 26 27 28 29 30 31 32 33 34
000
FTUS43 KDMX 060811 AAA
TAFOTM
TAF AMD
KOTM 060811Z 0608/0706 22006KT P6SM OVC025
     FM061800 24012KT P6SM SCT120
     FM070300 20011KT P6SM SCT015 BKN090=

USA.gov is the U.S. government's official web portal to all federal, state and local government web resources and services.